sensor_id;sensor_type;location;lat;lon;timestamp;temperature;humidity
60860;DHT22;46694;54.382;9.708;2023-09-19T00:02:28;17.80;99.90
60860;DHT22;46694;54.382;9.708;2023-09-19T00:05:08;17.80;99.90
60860;DHT22;46694;54.382;9.708;2023-09-19T00:07:48;17.90;99.90
60860;DHT22;46694;54.382;9.708;2023-09-19T00:10:30;17.80;99.90
60860;DHT22;46694;54.382;9.708;2023-09-19T00:13:11;17.80;99.90
60860;DHT22;46694;54.382;9.708;2023-09-19T00:15:53;17.80;99.90
60860;DHT22;46694;54.382;9.708;2023-09-19T00:18:34;17.80;99.90
60860;DHT22;46694;54.382;9.708;2023-09-19T00:21:14;17.80;99.90
60860;DHT22;46694;54.382;9.708;2023-09-19T00:23:54;17.90;99.90
60860;DHT22;46694;54.382;9.708;2023-09-19T00:26:34;17.80;99.90
60860;DHT22;46694;54.382;9.708;2023-09-19T00:29:13;17.80;99.90
60860;DHT22;46694;54.382;9.708;2023-09-19T00:31:55;17.90;99.90
60860;DHT22;46694;54.382;9.708;2023-09-19T00:34:36;17.90;99.90
60860;DHT22;46694;54.382;9.708;2023-09-19T00:37:16;17.90;99.90
60860;DHT22;46694;54.382;9.708;2023-09-19T00:39:56;17.90;99.90
60860;DHT22;46694;54.382;9.708;2023-09-19T00:42:36;17.80;99.90
60860;DHT22;46694;54.382;9.708;2023-09-19T00:45:17;17.90;99.90
60860;DHT22;46694;54.382;9.708;2023-09-19T00:47:57;17.80;99.90
60860;DHT22;46694;54.382;9.708;2023-09-19T00:50:37;17.80;99.90
60860;DHT22;46694;54.382;9.708;2023-09-19T00:53:21;17.90;99.90
60860;DHT22;46694;54.382;9.708;2023-09-19T00:56:03;17.90;99.90
60860;DHT22;46694;54.382;9.708;2023-09-19T00:58:47;17.80;99.90
60860;DHT22;46694;54.382;9.708;2023-09-19T01:01:27;17.70;99.90
60860;DHT22;46694;54.382;9.708;2023-09-19T01:04:08;17.60;99.90
60860;DHT22;46694;54.382;9.708;2023-09-19T01:06:47;17.50;99.90
60860;DHT22;46694;54.382;9.708;2023-09-19T01:09:31;17.40;99.90
60860;DHT22;46694;54.382;9.708;2023-09-19T01:12:16;17.40;99.90
60860;DHT22;46694;54.382;9.708;2023-09-19T01:15:31;17.30;99.90
60860;DHT22;46694;54.382;9.708;2023-09-19T01:18:19;17.30;99.90
60860;DHT22;46694;54.382;9.708;2023-09-19T01:24:52;17.20;99.90
60860;DHT22;46694;54.382;9.708;2023-09-19T01:28:20;17.10;99.90
60860;DHT22;46694;54.382;9.708;2023-09-19T01:31:09;17.10;99.90
60860;DHT22;46694;54.382;9.708;2023-09-19T01:33:54;17.00;99.90
60860;DHT22;46694;54.382;9.708;2023-09-19T01:36:42;17.00;99.90
60860;DHT22;46694;54.382;9.708;2023-09-19T01:39:24;17.00;99.90
60860;DHT22;46694;54.382;9.708;2023-09-19T01:45:57;16.90;99.90
60860;DHT22;46694;54.382;9.708;2023-09-19T01:54:52;16.90;99.90
60860;DHT22;46694;54.382;9.708;2023-09-19T01:57:48;16.80;99.90
60860;DHT22;46694;54.382;9.708;2023-09-19T02:00:34;16.80;99.90
60860;DHT22;46694;54.382;9.708;2023-09-19T02:03:16;16.80;99.90
60860;DHT22;46694;54.382;9.708;2023-09-19T02:05:56;16.70;99.90
60860;DHT22;46694;54.382;9.708;2023-09-19T02:08:35;16.70;99.90
60860;DHT22;46694;54.382;9.708;2023-09-19T02:11:15;16.70;99.90
60860;DHT22;46694;54.382;9.708;2023-09-19T02:13:55;16.60;99.90
60860;DHT22;46694;54.382;9.708;2023-09-19T02:16:35;16.60;99.90
60860;DHT22;46694;54.382;9.708;2023-09-19T02:19:15;16.60;99.90
60860;DHT22;46694;54.382;9.708;2023-09-19T02:21:55;16.60;99.90
60860;DHT22;46694;54.382;9.708;2023-09-19T02:24:34;16.60;99.90
60860;DHT22;46694;54.382;9.708;2023-09-19T02:27:14;16.60;99.90
60860;DHT22;46694;54.382;9.708;2023-09-19T02:29:55;16.60;99.90
60860;DHT22;46694;54.382;9.708;2023-09-19T02:32:34;16.60;99.90
60860;DHT22;46694;54.382;9.708;2023-09-19T02:35:17;16.60;99.90
60860;DHT22;46694;54.382;9.708;2023-09-19T02:38:00;16.60;99.90
60860;DHT22;46694;54.382;9.708;2023-09-19T02:40:39;16.40;99.90
60860;DHT22;46694;54.382;9.708;2023-09-19T02:43:19;16.30;99.90
60860;DHT22;46694;54.382;9.708;2023-09-19T02:45:58;16.20;99.90
60860;DHT22;46694;54.382;9.708;2023-09-19T02:48:38;16.20;99.90
60860;DHT22;46694;54.382;9.708;2023-09-19T02:51:17;16.20;99.90
60860;DHT22;46694;54.382;9.708;2023-09-19T02:53:57;16.10;99.90
60860;DHT22;46694;54.382;9.708;2023-09-19T02:56:38;16.10;99.90
60860;DHT22;46694;54.382;9.708;2023-09-19T02:59:17;16.10;99.90
60860;DHT22;46694;54.382;9.708;2023-09-19T03:01:58;16.20;99.90
60860;DHT22;46694;54.382;9.708;2023-09-19T03:04:39;16.20;99.90
60860;DHT22;46694;54.382;9.708;2023-09-19T03:07:18;16.20;99.90
60860;DHT22;46694;54.382;9.708;2023-09-19T03:10:00;16.10;99.90
60860;DHT22;46694;54.382;9.708;2023-09-19T03:12:39;16.10;99.90
60860;DHT22;46694;54.382;9.708;2023-09-19T03:15:19;16.10;99.90
60860;DHT22;46694;54.382;9.708;2023-09-19T03:17:58;16.00;99.90
60860;DHT22;46694;54.382;9.708;2023-09-19T03:20:42;15.80;99.90
60860;DHT22;46694;54.382;9.708;2023-09-19T03:23:22;15.60;99.90
60860;DHT22;46694;54.382;9.708;2023-09-19T03:26:02;15.50;99.90
60860;DHT22;46694;54.382;9.708;2023-09-19T03:28:44;15.30;99.90
60860;DHT22;46694;54.382;9.708;2023-09-19T03:31:25;15.20;99.90
60860;DHT22;46694;54.382;9.708;2023-09-19T03:34:04;15.10;99.90
60860;DHT22;46694;54.382;9.708;2023-09-19T03:36:44;15.00;99.90
60860;DHT22;46694;54.382;9.708;2023-09-19T03:39:23;14.90;99.90
60860;DHT22;46694;54.382;9.708;2023-09-19T03:42:06;14.90;99.90
60860;DHT22;46694;54.382;9.708;2023-09-19T03:44:46;14.80;99.90
60860;DHT22;46694;54.382;9.708;2023-09-19T03:47:25;14.80;99.90
60860;DHT22;46694;54.382;9.708;2023-09-19T03:50:06;14.80;99.90
60860;DHT22;46694;54.382;9.708;2023-09-19T03:52:47;14.70;99.90
60860;DHT22;46694;54.382;9.708;2023-09-19T03:55:26;14.70;99.90
60860;DHT22;46694;54.382;9.708;2023-09-19T03:58:06;14.70;99.90
60860;DHT22;46694;54.382;9.708;2023-09-19T04:00:46;14.80;99.90
60860;DHT22;46694;54.382;9.708;2023-09-19T04:03:25;14.80;99.90
60860;DHT22;46694;54.382;9.708;2023-09-19T04:06:17;14.80;99.90
60860;DHT22;46694;54.382;9.708;2023-09-19T04:08:56;14.80;99.90
60860;DHT22;46694;54.382;9.708;2023-09-19T04:11:36;14.80;99.90
60860;DHT22;46694;54.382;9.708;2023-09-19T04:14:15;14.80;99.90
60860;DHT22;46694;54.382;9.708;2023-09-19T04:16:55;14.80;99.90
60860;DHT22;46694;54.382;9.708;2023-09-19T04:19:35;14.80;99.90
60860;DHT22;46694;54.382;9.708;2023-09-19T04:22:14;14.80;99.90
60860;DHT22;46694;54.382;9.708;2023-09-19T04:24:54;14.80;99.90
60860;DHT22;46694;54.382;9.708;2023-09-19T04:27:34;14.70;99.90
60860;DHT22;46694;54.382;9.708;2023-09-19T04:30:13;14.70;99.90
60860;DHT22;46694;54.382;9.708;2023-09-19T04:32:53;14.70;99.90
60860;DHT22;46694;54.382;9.708;2023-09-19T04:35:33;14.70;99.90
60860;DHT22;46694;54.382;9.708;2023-09-19T04:38:13;14.70;99.90
60860;DHT22;46694;54.382;9.708;2023-09-19T04:40:57;14.70;99.90
60860;DHT22;46694;54.382;9.708;2023-09-19T04:43:38;14.70;99.90
60860;DHT22;46694;54.382;9.708;2023-09-19T04:46:17;14.70;99.90
60860;DHT22;46694;54.382;9.708;2023-09-19T04:48:56;14.60;99.90
60860;DHT22;46694;54.382;9.708;2023-09-19T04:51:37;14.60;99.90
60860;DHT22;46694;54.382;9.708;2023-09-19T04:54:16;14.60;99.90
60860;DHT22;46694;54.382;9.708;2023-09-19T04:56:57;14.60;99.90
60860;DHT22;46694;54.382;9.708;2023-09-19T04:59:37;14.60;99.90
60860;DHT22;46694;54.382;9.708;2023-09-19T05:02:16;14.50;99.90
60860;DHT22;46694;54.382;9.708;2023-09-19T05:04:56;14.60;99.90
60860;DHT22;46694;54.382;9.708;2023-09-19T05:07:41;14.60;99.90
60860;DHT22;46694;54.382;9.708;2023-09-19T05:10:21;14.60;99.90
60860;DHT22;46694;54.382;9.708;2023-09-19T05:13:01;14.60;99.90
60860;DHT22;46694;54.382;9.708;2023-09-19T05:15:41;14.60;99.90
60860;DHT22;46694;54.382;9.708;2023-09-19T05:18:20;14.60;99.90
60860;DHT22;46694;54.382;9.708;2023-09-19T05:21:02;14.60;99.90
60860;DHT22;46694;54.382;9.708;2023-09-19T05:23:42;14.60;99.90
60860;DHT22;46694;54.382;9.708;2023-09-19T05:26:22;14.70;99.90
60860;DHT22;46694;54.382;9.708;2023-09-19T05:29:01;14.70;99.90
60860;DHT22;46694;54.382;9.708;2023-09-19T05:31:42;14.70;99.90
60860;DHT22;46694;54.382;9.708;2023-09-19T05:34:22;14.70;99.90
60860;DHT22;46694;54.382;9.708;2023-09-19T05:37:01;14.70;99.90
60860;DHT22;46694;54.382;9.708;2023-09-19T05:39:41;14.70;99.90
60860;DHT22;46694;54.382;9.708;2023-09-19T05:42:21;14.70;99.90
60860;DHT22;46694;54.382;9.708;2023-09-19T05:45:01;14.70;99.90
60860;DHT22;46694;54.382;9.708;2023-09-19T05:47:40;14.70;99.90
60860;DHT22;46694;54.382;9.708;2023-09-19T05:50:22;14.80;99.90
60860;DHT22;46694;54.382;9.708;2023-09-19T05:53:03;14.80;99.90
60860;DHT22;46694;54.382;9.708;2023-09-19T05:55:43;14.80;99.90
60860;DHT22;46694;54.382;9.708;2023-09-19T05:58:23;14.90;99.90
60860;DHT22;46694;54.382;9.708;2023-09-19T06:01:02;14.90;99.90
60860;DHT22;46694;54.382;9.708;2023-09-19T06:03:43;14.90;99.90
60860;DHT22;46694;54.382;9.708;2023-09-19T06:06:22;15.00;99.90
60860;DHT22;46694;54.382;9.708;2023-09-19T06:09:03;15.10;99.90
60860;DHT22;46694;54.382;9.708;2023-09-19T06:11:44;15.20;99.90
60860;DHT22;46694;54.382;9.708;2023-09-19T06:14:24;15.20;99.90
60860;DHT22;46694;54.382;9.708;2023-09-19T06:17:03;15.20;99.90
60860;DHT22;46694;54.382;9.708;2023-09-19T06:19:43;15.20;99.90
60860;DHT22;46694;54.382;9.708;2023-09-19T06:22:26;15.30;99.90
60860;DHT22;46694;54.382;9.708;2023-09-19T06:25:06;15.30;99.90
60860;DHT22;46694;54.382;9.708;2023-09-19T06:27:46;15.40;99.90
60860;DHT22;46694;54.382;9.708;2023-09-19T06:30:31;15.50;99.90
60860;DHT22;46694;54.382;9.708;2023-09-19T06:33:11;15.60;99.90
60860;DHT22;46694;54.382;9.708;2023-09-19T06:35:52;15.60;99.90
60860;DHT22;46694;54.382;9.708;2023-09-19T06:38:38;15.70;99.90
60860;DHT22;46694;54.382;9.708;2023-09-19T06:41:20;15.70;99.90
60860;DHT22;46694;54.382;9.708;2023-09-19T06:44:04;15.70;99.90
60860;DHT22;46694;54.382;9.708;2023-09-19T06:46:44;15.70;99.90
60860;DHT22;46694;54.382;9.708;2023-09-19T06:49:25;15.70;99.90
60860;DHT22;46694;54.382;9.708;2023-09-19T06:52:05;15.80;99.90
60860;DHT22;46694;54.382;9.708;2023-09-19T06:54:45;15.80;99.90
60860;DHT22;46694;54.382;9.708;2023-09-19T06:57:31;15.80;99.90
60860;DHT22;46694;54.382;9.708;2023-09-19T07:00:11;15.80;99.90
60860;DHT22;46694;54.382;9.708;2023-09-19T07:02:58;15.80;99.90
60860;DHT22;46694;54.382;9.708;2023-09-19T07:05:49;15.80;99.90
60860;DHT22;46694;54.382;9.708;2023-09-19T07:08:28;15.80;99.90
60860;DHT22;46694;54.382;9.708;2023-09-19T07:11:08;15.70;99.90
60860;DHT22;46694;54.382;9.708;2023-09-19T07:13:48;15.70;99.90
60860;DHT22;46694;54.382;9.708;2023-09-19T07:16:28;15.60;99.90
60860;DHT22;46694;54.382;9.708;2023-09-19T07:19:08;15.60;99.90
60860;DHT22;46694;54.382;9.708;2023-09-19T07:21:48;15.60;99.90
60860;DHT22;46694;54.382;9.708;2023-09-19T07:24:29;15.50;99.90
60860;DHT22;46694;54.382;9.708;2023-09-19T07:27:08;15.50;99.90
60860;DHT22;46694;54.382;9.708;2023-09-19T07:29:48;15.50;99.90
60860;DHT22;46694;54.382;9.708;2023-09-19T07:32:27;15.50;99.90
60860;DHT22;46694;54.382;9.708;2023-09-19T07:35:07;15.60;99.90
60860;DHT22;46694;54.382;9.708;2023-09-19T07:37:48;15.60;99.90
60860;DHT22;46694;54.382;9.708;2023-09-19T07:40:28;15.60;99.90
60860;DHT22;46694;54.382;9.708;2023-09-19T07:43:08;15.70;99.90
60860;DHT22;46694;54.382;9.708;2023-09-19T07:45:48;15.70;99.90
60860;DHT22;46694;54.382;9.708;2023-09-19T07:48:28;15.70;99.90
60860;DHT22;46694;54.382;9.708;2023-09-19T07:51:08;15.70;99.90
60860;DHT22;46694;54.382;9.708;2023-09-19T07:53:48;15.70;99.90
60860;DHT22;46694;54.382;9.708;2023-09-19T07:56:27;15.70;99.90
60860;DHT22;46694;54.382;9.708;2023-09-19T07:59:07;15.90;99.90
60860;DHT22;46694;54.382;9.708;2023-09-19T08:01:49;16.20;99.90
60860;DHT22;46694;54.382;9.708;2023-09-19T08:04:28;16.30;99.90
60860;DHT22;46694;54.382;9.708;2023-09-19T08:07:09;16.40;99.90
60860;DHT22;46694;54.382;9.708;2023-09-19T08:09:50;16.50;99.90
60860;DHT22;46694;54.382;9.708;2023-09-19T08:12:29;16.80;99.90
60860;DHT22;46694;54.382;9.708;2023-09-19T08:15:09;17.10;99.90
60860;DHT22;46694;54.382;9.708;2023-09-19T08:17:49;17.40;99.90
60860;DHT22;46694;54.382;9.708;2023-09-19T08:20:29;17.50;99.90
60860;DHT22;46694;54.382;9.708;2023-09-19T08:23:15;17.40;99.90
60860;DHT22;46694;54.382;9.708;2023-09-19T08:25:57;17.30;99.90
60860;DHT22;46694;54.382;9.708;2023-09-19T08:28:37;17.20;99.90
60860;DHT22;46694;54.382;9.708;2023-09-19T08:31:19;17.20;99.90
60860;DHT22;46694;54.382;9.708;2023-09-19T08:33:59;17.30;99.90
60860;DHT22;46694;54.382;9.708;2023-09-19T08:36:39;17.60;99.90
60860;DHT22;46694;54.382;9.708;2023-09-19T08:39:20;18.00;99.90
60860;DHT22;46694;54.382;9.708;2023-09-19T08:42:01;18.30;99.90
60860;DHT22;46694;54.382;9.708;2023-09-19T08:44:53;18.70;99.90
60860;DHT22;46694;54.382;9.708;2023-09-19T08:47:41;19.00;99.90
60860;DHT22;46694;54.382;9.708;2023-09-19T08:50:29;19.10;99.90
60860;DHT22;46694;54.382;9.708;2023-09-19T08:53:11;18.90;99.90
60860;DHT22;46694;54.382;9.708;2023-09-19T08:55:56;18.80;99.90
60860;DHT22;46694;54.382;9.708;2023-09-19T08:58:53;18.70;99.90
60860;DHT22;46694;54.382;9.708;2023-09-19T09:01:36;18.50;99.90
60860;DHT22;46694;54.382;9.708;2023-09-19T09:04:16;18.20;99.90
60860;DHT22;46694;54.382;9.708;2023-09-19T09:06:57;18.00;99.90
60860;DHT22;46694;54.382;9.708;2023-09-19T09:09:37;17.80;99.90
60860;DHT22;46694;54.382;9.708;2023-09-19T09:12:17;17.80;99.90
60860;DHT22;46694;54.382;9.708;2023-09-19T09:14:56;17.70;99.90
60860;DHT22;46694;54.382;9.708;2023-09-19T09:17:36;17.70;99.90
60860;DHT22;46694;54.382;9.708;2023-09-19T09:20:20;17.70;99.90
60860;DHT22;46694;54.382;9.708;2023-09-19T09:22:59;17.70;99.90
60860;DHT22;46694;54.382;9.708;2023-09-19T09:25:51;17.70;99.90
60860;DHT22;46694;54.382;9.708;2023-09-19T09:28:35;17.80;99.90
60860;DHT22;46694;54.382;9.708;2023-09-19T09:31:24;18.00;99.90
60860;DHT22;46694;54.382;9.708;2023-09-19T09:34:04;17.90;99.90
60860;DHT22;46694;54.382;9.708;2023-09-19T09:36:48;18.10;99.90
60860;DHT22;46694;54.382;9.708;2023-09-19T09:39:31;18.20;99.90
60860;DHT22;46694;54.382;9.708;2023-09-19T09:42:29;18.10;99.90
60860;DHT22;46694;54.382;9.708;2023-09-19T09:45:16;18.00;99.90
60860;DHT22;46694;54.382;9.708;2023-09-19T09:48:15;18.20;99.90
60860;DHT22;46694;54.382;9.708;2023-09-19T09:51:11;18.00;99.90
60860;DHT22;46694;54.382;9.708;2023-09-19T09:54:11;18.00;99.90
60860;DHT22;46694;54.382;9.708;2023-09-19T09:57:00;18.10;99.90
60860;DHT22;46694;54.382;9.708;2023-09-19T09:59:53;18.40;99.90
60860;DHT22;46694;54.382;9.708;2023-09-19T10:02:54;18.30;99.90
60860;DHT22;46694;54.382;9.708;2023-09-19T10:05:33;18.10;99.90
60860;DHT22;46694;54.382;9.708;2023-09-19T10:08:19;18.30;99.90
60860;DHT22;46694;54.382;9.708;2023-09-19T10:10:59;18.20;99.90
60860;DHT22;46694;54.382;9.708;2023-09-19T10:13:46;18.40;99.90
60860;DHT22;46694;54.382;9.708;2023-09-19T10:16:26;18.60;99.90
60860;DHT22;46694;54.382;9.708;2023-09-19T10:19:10;18.90;99.90
60860;DHT22;46694;54.382;9.708;2023-09-19T10:21:55;18.80;99.90
60860;DHT22;46694;54.382;9.708;2023-09-19T10:24:36;19.00;99.90
60860;DHT22;46694;54.382;9.708;2023-09-19T10:27:18;18.70;99.90
60860;DHT22;46694;54.382;9.708;2023-09-19T10:29:59;18.60;99.90
60860;DHT22;46694;54.382;9.708;2023-09-19T10:32:40;18.70;99.90
60860;DHT22;46694;54.382;9.708;2023-09-19T10:35:21;18.60;99.90
60860;DHT22;46694;54.382;9.708;2023-09-19T10:38:01;18.60;99.90
60860;DHT22;46694;54.382;9.708;2023-09-19T10:40:41;18.70;99.90
60860;DHT22;46694;54.382;9.708;2023-09-19T10:43:29;18.40;99.90
60860;DHT22;46694;54.382;9.708;2023-09-19T10:46:11;18.70;99.90
60860;DHT22;46694;54.382;9.708;2023-09-19T10:48:51;18.70;99.90
60860;DHT22;46694;54.382;9.708;2023-09-19T10:51:40;18.80;99.90
60860;DHT22;46694;54.382;9.708;2023-09-19T10:54:22;18.90;99.90
60860;DHT22;46694;54.382;9.708;2023-09-19T10:57:05;18.90;99.90
60860;DHT22;46694;54.382;9.708;2023-09-19T11:00:07;19.30;99.90
60860;DHT22;46694;54.382;9.708;2023-09-19T11:06:13;19.00;99.90
60860;DHT22;46694;54.382;9.708;2023-09-19T11:09:01;18.90;99.90
60860;DHT22;46694;54.382;9.708;2023-09-19T11:11:51;18.90;99.90
60860;DHT22;46694;54.382;9.708;2023-09-19T11:14:39;18.90;99.90
60860;DHT22;46694;54.382;9.708;2023-09-19T11:30:57;19.40;99.90
60860;DHT22;46694;54.382;9.708;2023-09-19T11:33:37;19.50;99.90
60860;DHT22;46694;54.382;9.708;2023-09-19T11:36:35;19.60;99.90
60860;DHT22;46694;54.382;9.708;2023-09-19T11:39:25;19.40;99.90
60860;DHT22;46694;54.382;9.708;2023-09-19T11:48:24;18.70;99.90
60860;DHT22;46694;54.382;9.708;2023-09-19T11:51:13;18.70;99.90
60860;DHT22;46694;54.382;9.708;2023-09-19T11:54:11;18.70;99.90
60860;DHT22;46694;54.382;9.708;2023-09-19T11:57:00;18.80;99.90
60860;DHT22;46694;54.382;9.708;2023-09-19T11:59:40;18.90;99.90
60860;DHT22;46694;54.382;9.708;2023-09-19T12:02:39;18.90;99.90
60860;DHT22;46694;54.382;9.708;2023-09-19T12:05:29;18.90;99.90
60860;DHT22;46694;54.382;9.708;2023-09-19T12:08:08;18.80;99.90
60860;DHT22;46694;54.382;9.708;2023-09-19T12:10:49;18.90;99.90
60860;DHT22;46694;54.382;9.708;2023-09-19T12:13:30;18.80;99.90
60860;DHT22;46694;54.382;9.708;2023-09-19T12:16:18;18.90;99.90
60860;DHT22;46694;54.382;9.708;2023-09-19T12:19:18;19.00;99.90
60860;DHT22;46694;54.382;9.708;2023-09-19T12:22:03;19.00;99.90
60860;DHT22;46694;54.382;9.708;2023-09-19T12:24:47;19.00;99.90
60860;DHT22;46694;54.382;9.708;2023-09-19T12:27:27;19.30;99.90
60860;DHT22;46694;54.382;9.708;2023-09-19T12:30:08;19.10;99.90
60860;DHT22;46694;54.382;9.708;2023-09-19T12:32:49;19.10;99.90
60860;DHT22;46694;54.382;9.708;2023-09-19T12:35:32;19.20;99.90
60860;DHT22;46694;54.382;9.708;2023-09-19T12:38:28;19.10;99.90
60860;DHT22;46694;54.382;9.708;2023-09-19T12:41:08;19.10;99.90
60860;DHT22;46694;54.382;9.708;2023-09-19T12:43:49;19.00;99.90
60860;DHT22;46694;54.382;9.708;2023-09-19T12:46:31;18.90;99.90
60860;DHT22;46694;54.382;9.708;2023-09-19T12:49:16;18.80;99.90
60860;DHT22;46694;54.382;9.708;2023-09-19T12:51:58;18.70;99.90
60860;DHT22;46694;54.382;9.708;2023-09-19T12:54:42;18.80;99.90
60860;DHT22;46694;54.382;9.708;2023-09-19T12:57:24;18.70;99.90
60860;DHT22;46694;54.382;9.708;2023-09-19T13:00:06;18.70;99.90
60860;DHT22;46694;54.382;9.708;2023-09-19T13:06:10;19.00;99.90
60860;DHT22;46694;54.382;9.708;2023-09-19T13:09:08;19.10;99.90
60860;DHT22;46694;54.382;9.708;2023-09-19T13:11:48;19.10;99.90
60860;DHT22;46694;54.382;9.708;2023-09-19T13:14:29;19.10;99.90
60860;DHT22;46694;54.382;9.708;2023-09-19T13:17:19;19.30;99.90
60860;DHT22;46694;54.382;9.708;2023-09-19T13:19:59;19.40;99.90
60860;DHT22;46694;54.382;9.708;2023-09-19T13:22:42;19.30;99.90
60860;DHT22;46694;54.382;9.708;2023-09-19T13:25:25;19.10;99.90
60860;DHT22;46694;54.382;9.708;2023-09-19T13:28:07;19.00;99.90
60860;DHT22;46694;54.382;9.708;2023-09-19T13:30:46;19.00;99.90
60860;DHT22;46694;54.382;9.708;2023-09-19T13:33:27;19.00;99.90
60860;DHT22;46694;54.382;9.708;2023-09-19T13:36:07;19.10;99.90
60860;DHT22;46694;54.382;9.708;2023-09-19T13:38:47;19.00;99.90
60860;DHT22;46694;54.382;9.708;2023-09-19T13:41:28;19.00;99.90
60860;DHT22;46694;54.382;9.708;2023-09-19T13:44:08;18.90;99.90
60860;DHT22;46694;54.382;9.708;2023-09-19T13:46:49;18.90;99.90
60860;DHT22;46694;54.382;9.708;2023-09-19T13:49:30;18.90;99.90
60860;DHT22;46694;54.382;9.708;2023-09-19T13:52:11;19.00;99.90
60860;DHT22;46694;54.382;9.708;2023-09-19T13:54:52;19.00;99.90
60860;DHT22;46694;54.382;9.708;2023-09-19T13:57:31;19.00;99.90
60860;DHT22;46694;54.382;9.708;2023-09-19T14:00:12;18.90;99.90
60860;DHT22;46694;54.382;9.708;2023-09-19T14:02:55;18.80;99.90
60860;DHT22;46694;54.382;9.708;2023-09-19T14:05:35;18.80;99.90
60860;DHT22;46694;54.382;9.708;2023-09-19T14:08:14;18.80;99.90
60860;DHT22;46694;54.382;9.708;2023-09-19T14:10:53;18.80;99.90
60860;DHT22;46694;54.382;9.708;2023-09-19T14:13:33;18.80;99.90
60860;DHT22;46694;54.382;9.708;2023-09-19T14:16:13;18.80;99.90
60860;DHT22;46694;54.382;9.708;2023-09-19T14:18:52;18.70;99.90
60860;DHT22;46694;54.382;9.708;2023-09-19T14:21:32;18.70;99.90
60860;DHT22;46694;54.382;9.708;2023-09-19T14:24:16;18.70;99.90
60860;DHT22;46694;54.382;9.708;2023-09-19T14:26:56;18.80;99.90
60860;DHT22;46694;54.382;9.708;2023-09-19T14:29:37;18.80;99.90
60860;DHT22;46694;54.382;9.708;2023-09-19T14:32:16;18.60;99.90
60860;DHT22;46694;54.382;9.708;2023-09-19T14:35:24;18.60;99.90
60860;DHT22;46694;54.382;9.708;2023-09-19T14:38:04;18.60;99.90
60860;DHT22;46694;54.382;9.708;2023-09-19T14:40:43;18.50;99.90
60860;DHT22;46694;54.382;9.708;2023-09-19T14:43:38;18.60;99.90
60860;DHT22;46694;54.382;9.708;2023-09-19T14:46:18;18.40;99.90
60860;DHT22;46694;54.382;9.708;2023-09-19T14:48:58;18.50;99.90
60860;DHT22;46694;54.382;9.708;2023-09-19T14:51:42;18.40;99.90
60860;DHT22;46694;54.382;9.708;2023-09-19T14:54:23;18.60;99.90
60860;DHT22;46694;54.382;9.708;2023-09-19T14:57:03;18.50;99.90
60860;DHT22;46694;54.382;9.708;2023-09-19T14:59:43;18.60;99.90
60860;DHT22;46694;54.382;9.708;2023-09-19T15:02:22;18.70;99.90
60860;DHT22;46694;54.382;9.708;2023-09-19T15:05:02;18.60;99.90
60860;DHT22;46694;54.382;9.708;2023-09-19T15:07:42;18.60;99.90
60860;DHT22;46694;54.382;9.708;2023-09-19T15:10:23;18.70;99.90
60860;DHT22;46694;54.382;9.708;2023-09-19T15:13:02;18.60;99.90
60860;DHT22;46694;54.382;9.708;2023-09-19T15:15:41;18.70;99.90
60860;DHT22;46694;54.382;9.708;2023-09-19T15:18:23;18.70;99.90
60860;DHT22;46694;54.382;9.708;2023-09-19T15:21:06;18.80;99.90
60860;DHT22;46694;54.382;9.708;2023-09-19T15:23:49;18.60;99.90
60860;DHT22;46694;54.382;9.708;2023-09-19T15:26:29;18.70;99.90
60860;DHT22;46694;54.382;9.708;2023-09-19T15:29:09;18.70;99.90
60860;DHT22;46694;54.382;9.708;2023-09-19T15:31:48;18.60;99.90
60860;DHT22;46694;54.382;9.708;2023-09-19T15:34:28;18.50;99.90
60860;DHT22;46694;54.382;9.708;2023-09-19T15:37:09;18.70;99.90
60860;DHT22;46694;54.382;9.708;2023-09-19T15:39:48;18.50;99.90
60860;DHT22;46694;54.382;9.708;2023-09-19T15:42:28;18.50;99.90
60860;DHT22;46694;54.382;9.708;2023-09-19T15:45:08;18.40;99.90
60860;DHT22;46694;54.382;9.708;2023-09-19T15:47:49;18.40;99.90
60860;DHT22;46694;54.382;9.708;2023-09-19T15:50:28;18.40;99.90
60860;DHT22;46694;54.382;9.708;2023-09-19T15:53:08;18.30;99.90
60860;DHT22;46694;54.382;9.708;2023-09-19T15:55:48;18.50;99.90
60860;DHT22;46694;54.382;9.708;2023-09-19T15:58:27;18.30;99.90
60860;DHT22;46694;54.382;9.708;2023-09-19T16:01:14;18.30;99.90
60860;DHT22;46694;54.382;9.708;2023-09-19T16:03:54;18.30;99.90
60860;DHT22;46694;54.382;9.708;2023-09-19T16:06:37;18.30;99.90
60860;DHT22;46694;54.382;9.708;2023-09-19T16:09:17;18.30;99.90
60860;DHT22;46694;54.382;9.708;2023-09-19T16:11:57;18.30;99.90
60860;DHT22;46694;54.382;9.708;2023-09-19T16:14:37;18.40;99.90
60860;DHT22;46694;54.382;9.708;2023-09-19T16:17:17;18.30;99.90
60860;DHT22;46694;54.382;9.708;2023-09-19T16:19:56;18.30;99.90
60860;DHT22;46694;54.382;9.708;2023-09-19T16:22:38;18.30;99.90
60860;DHT22;46694;54.382;9.708;2023-09-19T16:25:19;18.40;99.90
60860;DHT22;46694;54.382;9.708;2023-09-19T16:27:58;18.40;99.90
60860;DHT22;46694;54.382;9.708;2023-09-19T16:30:38;18.40;99.90
60860;DHT22;46694;54.382;9.708;2023-09-19T16:33:18;18.30;99.90
60860;DHT22;46694;54.382;9.708;2023-09-19T16:35:59;18.40;99.90
60860;DHT22;46694;54.382;9.708;2023-09-19T16:38:39;18.30;99.90
60860;DHT22;46694;54.382;9.708;2023-09-19T16:41:19;18.30;99.90
60860;DHT22;46694;54.382;9.708;2023-09-19T16:43:58;18.20;99.90
60860;DHT22;46694;54.382;9.708;2023-09-19T16:46:38;18.10;99.90
60860;DHT22;46694;54.382;9.708;2023-09-19T16:49:17;18.10;99.90
60860;DHT22;46694;54.382;9.708;2023-09-19T16:51:57;18.10;99.90
60860;DHT22;46694;54.382;9.708;2023-09-19T16:54:36;18.00;99.90
60860;DHT22;46694;54.382;9.708;2023-09-19T16:57:16;18.20;99.90
60860;DHT22;46694;54.382;9.708;2023-09-19T16:59:55;18.10;99.90
60860;DHT22;46694;54.382;9.708;2023-09-19T17:02:35;18.20;99.90
60860;DHT22;46694;54.382;9.708;2023-09-19T17:05:15;18.20;99.90
60860;DHT22;46694;54.382;9.708;2023-09-19T17:07:54;18.30;99.90
60860;DHT22;46694;54.382;9.708;2023-09-19T17:10:35;18.30;99.90
60860;DHT22;46694;54.382;9.708;2023-09-19T17:13:14;18.30;99.90
60860;DHT22;46694;54.382;9.708;2023-09-19T17:18:56;18.30;99.90
60860;DHT22;46694;54.382;9.708;2023-09-19T17:21:42;18.30;99.90
60860;DHT22;46694;54.382;9.708;2023-09-19T17:24:22;18.30;99.90
60860;DHT22;46694;54.382;9.708;2023-09-19T17:27:01;18.30;99.90
60860;DHT22;46694;54.382;9.708;2023-09-19T17:29:41;18.30;99.90
60860;DHT22;46694;54.382;9.708;2023-09-19T17:32:20;18.30;99.90
60860;DHT22;46694;54.382;9.708;2023-09-19T17:35:00;18.30;99.90
60860;DHT22;46694;54.382;9.708;2023-09-19T17:37:39;18.40;99.90
60860;DHT22;46694;54.382;9.708;2023-09-19T17:40:20;18.30;99.90
60860;DHT22;46694;54.382;9.708;2023-09-19T17:42:59;18.30;99.90
60860;DHT22;46694;54.382;9.708;2023-09-19T17:45:41;18.20;99.90
60860;DHT22;46694;54.382;9.708;2023-09-19T17:48:20;18.20;99.90